Ilford, United Kingdom
Current Conditions -  °F | °C
As of 9:20 AM on Wednesday 22 Oct 2014 (Local Time) from EGLC Reporting Station
Clear Clear  
Wind Chill: 50°   Ceiling: Unl
Heat Index: 50°   Visibility: 6mi
Dew Point: 41°   Wind: 14mph
Humidity: 71%   Direction: 280°W
Pressure: 30.27"   Gusts: NA
Location:  51.56°N, 0.07°E
Report Text: EGLC 220820Z 28012KT CAVOK 10/05 Q1025
Loading
Personal Weather Stations






























Interactive Weather Map
Tropical Storm Tracking
New forecast layout! Learn more

10-Day Weather Forecast

Advertisements
Track Severe Weather on mobile